Prescott, Canada
Current Conditions -  °F | °C
As of 6:14 AM on Sunday 23 Nov 2014 (Local Time) from KMSS Reporting Station
Haze Haze  
Wind Chill: 36°   Ceiling: 200
Heat Index: 41°   Visibility: 1.5mi
Dew Point: 41°   Wind: 7mph
Humidity: 100%   Direction: 210°SSW
Pressure: 30"   Gusts: NA
Location:  44.72°N, 75.52°W
Report Text: KMSS 231114Z AUTO 21006KT 1 1/2SM BR OVC002 05/05 A3000 RMK AO2 T00500050
Loading
Personal Weather Stations






























Interactive Weather Map New forecast layout! Learn more

10-Day Weather Forecast

Advertisements
Track Severe Weather on mobile